sensor_id;sensor_type;location;lat;lon;timestamp;pressure;altitude;pressure_sealevel;temperature;humidity
6668;BME280;3370;47.712;9.082;2023-04-03T00:01:02;97511.41;;;6.37;76.60
6668;BME280;3370;47.712;9.082;2023-04-03T00:03:28;97513.94;;;6.38;76.40
6668;BME280;3370;47.712;9.082;2023-04-03T00:05:54;97515.72;;;6.35;76.58
6668;BME280;3370;47.712;9.082;2023-04-03T00:08:20;97514.03;;;6.33;76.45
6668;BME280;3370;47.712;9.082;2023-04-03T00:10:46;97511.63;;;6.27;76.01
6668;BME280;3370;47.712;9.082;2023-04-03T00:13:12;97522.84;;;6.19;76.84
6668;BME280;3370;47.712;9.082;2023-04-03T00:15:38;97516.94;;;6.17;77.05
6668;BME280;3370;47.712;9.082;2023-04-03T00:18:05;97512.66;;;6.17;76.50
6668;BME280;3370;47.712;9.082;2023-04-03T00:20:32;97518.88;;;6.04;76.84
6668;BME280;3370;47.712;9.082;2023-04-03T00:22:59;97521.56;;;5.94;77.19
6668;BME280;3370;47.712;9.082;2023-04-03T00:25:25;97532.56;;;6.00;77.01
6668;BME280;3370;47.712;9.082;2023-04-03T00:27:51;97529.16;;;6.01;76.81
6668;BME280;3370;47.712;9.082;2023-04-03T00:30:19;97527.53;;;5.97;77.03
6668;BME280;3370;47.712;9.082;2023-04-03T00:32:48;97532.75;;;5.87;77.69
6668;BME280;3370;47.712;9.082;2023-04-03T00:35:14;97530.16;;;5.90;76.99
6668;BME280;3370;47.712;9.082;2023-04-03T00:37:42;97537.97;;;5.81;77.55
6668;BME280;3370;47.712;9.082;2023-04-03T00:40:09;97533.75;;;5.80;77.63
6668;BME280;3370;47.712;9.082;2023-04-03T00:42:41;97536.34;;;5.79;77.77
6668;BME280;3370;47.712;9.082;2023-04-03T00:47:37;97537.19;;;5.78;77.77
6668;BME280;3370;47.712;9.082;2023-04-03T00:50:05;97538.03;;;5.78;77.98
6668;BME280;3370;47.712;9.082;2023-04-03T00:52:31;97539.78;;;5.74;77.73
6668;BME280;3370;47.712;9.082;2023-04-03T00:55:02;97533.88;;;5.72;77.89
6668;BME280;3370;47.712;9.082;2023-04-03T00:57:30;97529.72;;;5.68;77.92
6668;BME280;3370;47.712;9.082;2023-04-03T01:00:03;97529.00;;;5.60;78.43
6668;BME280;3370;47.712;9.082;2023-04-03T01:02:30;97530.72;;;5.58;78.68
6668;BME280;3370;47.712;9.082;2023-04-03T01:04:56;97538.41;;;5.56;78.99
6668;BME280;3370;47.712;9.082;2023-04-03T01:07:26;97531.59;;;5.59;78.41
6668;BME280;3370;47.712;9.082;2023-04-03T01:09:58;97526.56;;;5.54;79.04
6668;BME280;3370;47.712;9.082;2023-04-03T01:12:27;97536.91;;;5.46;78.76
6668;BME280;3370;47.712;9.082;2023-04-03T01:15:16;97534.31;;;5.49;78.66
6668;BME280;3370;47.712;9.082;2023-04-03T01:18:01;97538.69;;;5.41;78.70
6668;BME280;3370;47.712;9.082;2023-04-03T01:25:38;97530.28;;;5.33;79.35
6668;BME280;3370;47.712;9.082;2023-04-03T01:28:08;97532.94;;;5.28;79.78
6668;BME280;3370;47.712;9.082;2023-04-03T01:30:51;97536.25;;;5.35;79.97
6668;BME280;3370;47.712;9.082;2023-04-03T01:33:19;97533.78;;;5.29;79.23
6668;BME280;3370;47.712;9.082;2023-04-03T01:35:45;97526.94;;;5.31;79.43
6668;BME280;3370;47.712;9.082;2023-04-03T01:38:11;97536.31;;;5.29;79.70
6668;BME280;3370;47.712;9.082;2023-04-03T01:40:37;97541.34;;;5.33;78.94
6668;BME280;3370;47.712;9.082;2023-04-03T01:43:03;97546.63;;;5.23;80.11
6668;BME280;3370;47.712;9.082;2023-04-03T01:45:29;97549.22;;;5.19;80.48
6668;BME280;3370;47.712;9.082;2023-04-03T01:47:54;97542.34;;;5.25;80.58
6668;BME280;3370;47.712;9.082;2023-04-03T01:50:20;97542.44;;;5.18;80.46
6668;BME280;3370;47.712;9.082;2023-04-03T01:52:46;97551.75;;;5.21;79.79
6668;BME280;3370;47.712;9.082;2023-04-03T01:55:12;97547.56;;;5.18;79.96
6668;BME280;3370;47.712;9.082;2023-04-03T01:57:37;97549.25;;;5.16;79.48
6668;BME280;3370;47.712;9.082;2023-04-03T02:00:04;97548.28;;;5.24;78.35
6668;BME280;3370;47.712;9.082;2023-04-03T02:02:30;97552.72;;;5.12;79.48
6668;BME280;3370;47.712;9.082;2023-04-03T02:04:56;97552.72;;;5.12;79.05
6668;BME280;3370;47.712;9.082;2023-04-03T02:07:21;97550.94;;;5.17;78.29
6668;BME280;3370;47.712;9.082;2023-04-03T02:09:47;97546.69;;;5.18;77.23
6668;BME280;3370;47.712;9.082;2023-04-03T02:12:13;97546.94;;;5.03;78.56
6668;BME280;3370;47.712;9.082;2023-04-03T02:14:39;97546.69;;;5.18;76.53
6668;BME280;3370;47.712;9.082;2023-04-03T02:17:04;97546.00;;;5.08;76.69
6668;BME280;3370;47.712;9.082;2023-04-03T02:19:34;97549.38;;;5.10;76.25
6668;BME280;3370;47.712;9.082;2023-04-03T02:22:03;97551.34;;;4.91;76.96
6668;BME280;3370;47.712;9.082;2023-04-03T02:24:28;97559.84;;;4.92;77.47
6668;BME280;3370;47.712;9.082;2023-04-03T02:26:55;97561.31;;;5.05;76.26
6668;BME280;3370;47.712;9.082;2023-04-03T02:29:20;97561.44;;;4.99;74.86
6668;BME280;3370;47.712;9.082;2023-04-03T02:31:46;97564.91;;;4.95;74.76
6668;BME280;3370;47.712;9.082;2023-04-03T02:34:12;97566.59;;;4.93;74.75
6668;BME280;3370;47.712;9.082;2023-04-03T02:36:38;97574.31;;;4.90;73.06
6668;BME280;3370;47.712;9.082;2023-04-03T02:39:04;97574.34;;;4.85;71.75
6668;BME280;3370;47.712;9.082;2023-04-03T02:41:30;97572.03;;;4.70;72.71
6668;BME280;3370;47.712;9.082;2023-04-03T02:44:02;97580.66;;;4.58;72.56
6668;BME280;3370;47.712;9.082;2023-04-03T02:46:28;97579.75;;;4.62;73.00
6668;BME280;3370;47.712;9.082;2023-04-03T02:48:54;97583.09;;;4.67;72.21
6668;BME280;3370;47.712;9.082;2023-04-03T02:51:20;97588.25;;;4.63;72.54
6668;BME280;3370;47.712;9.082;2023-04-03T02:53:46;97588.25;;;4.63;71.52
6668;BME280;3370;47.712;9.082;2023-04-03T02:56:12;97594.28;;;4.55;72.23
6668;BME280;3370;47.712;9.082;2023-04-03T02:58:38;97591.69;;;4.58;70.22
6668;BME280;3370;47.712;9.082;2023-04-03T03:01:03;97592.66;;;4.50;71.79
6668;BME280;3370;47.712;9.082;2023-04-03T03:03:29;97587.63;;;4.44;72.47
6668;BME280;3370;47.712;9.082;2023-04-03T03:06:10;97586.66;;;4.55;71.17
6668;BME280;3370;47.712;9.082;2023-04-03T03:08:37;97578.31;;;4.43;71.69
6668;BME280;3370;47.712;9.082;2023-04-03T03:11:03;97586.66;;;4.54;71.50
6668;BME280;3370;47.712;9.082;2023-04-03T03:13:30;97587.56;;;4.50;71.17
6668;BME280;3370;47.712;9.082;2023-04-03T03:15:56;97582.34;;;4.59;71.10
6668;BME280;3370;47.712;9.082;2023-04-03T03:18:23;97579.88;;;4.53;70.98
6668;BME280;3370;47.712;9.082;2023-04-03T03:20:53;97581.50;;;4.58;71.53
6668;BME280;3370;47.712;9.082;2023-04-03T03:23:20;97582.34;;;4.59;71.18
6668;BME280;3370;47.712;9.082;2023-04-03T03:25:46;97581.63;;;4.49;71.65
6668;BME280;3370;47.712;9.082;2023-04-03T03:28:12;97579.94;;;4.48;70.85
6668;BME280;3370;47.712;9.082;2023-04-03T03:30:37;97575.78;;;4.43;71.34
6668;BME280;3370;47.712;9.082;2023-04-03T03:33:03;97577.41;;;4.47;71.34
6668;BME280;3370;47.712;9.082;2023-04-03T03:35:29;97582.53;;;4.44;70.62
6668;BME280;3370;47.712;9.082;2023-04-03T03:37:55;97571.44;;;4.49;70.00
6668;BME280;3370;47.712;9.082;2023-04-03T03:40:21;97568.09;;;4.44;69.97
6668;BME280;3370;47.712;9.082;2023-04-03T03:42:47;97570.72;;;4.39;69.80
6668;BME280;3370;47.712;9.082;2023-04-03T03:45:12;97568.19;;;4.38;69.62
6668;BME280;3370;47.712;9.082;2023-04-03T03:47:38;97568.19;;;4.38;69.84
6668;BME280;3370;47.712;9.082;2023-04-03T03:50:06;97574.06;;;4.41;69.67
6668;BME280;3370;47.712;9.082;2023-04-03T03:52:32;97567.34;;;4.37;69.03
6668;BME280;3370;47.712;9.082;2023-04-03T03:54:57;97579.25;;;4.35;68.81
6668;BME280;3370;47.712;9.082;2023-04-03T03:57:23;97574.91;;;4.42;68.16
6668;BME280;3370;47.712;9.082;2023-04-03T03:59:49;97570.78;;;4.33;66.56
6668;BME280;3370;47.712;9.082;2023-04-03T04:02:17;97575.13;;;4.25;66.52
6668;BME280;3370;47.712;9.082;2023-04-03T04:04:42;97581.03;;;4.27;66.34
6668;BME280;3370;47.712;9.082;2023-04-03T04:07:08;97574.34;;;4.17;66.18
6668;BME280;3370;47.712;9.082;2023-04-03T04:09:34;97573.50;;;4.18;66.36
6668;BME280;3370;47.712;9.082;2023-04-03T04:11:59;97578.59;;;4.18;65.99
6668;BME280;3370;47.712;9.082;2023-04-03T04:14:25;97575.97;;;4.24;63.96
6668;BME280;3370;47.712;9.082;2023-04-03T04:16:51;97582.03;;;4.14;63.09
6668;BME280;3370;47.712;9.082;2023-04-03T04:19:17;97578.72;;;4.06;63.92
6668;BME280;3370;47.712;9.082;2023-04-03T04:21:43;97584.72;;;4.01;62.95
6668;BME280;3370;47.712;9.082;2023-04-03T04:24:09;97578.72;;;4.06;61.84
6668;BME280;3370;47.712;9.082;2023-04-03T04:26:35;97583.84;;;4.02;61.83
6668;BME280;3370;47.712;9.082;2023-04-03T04:29:00;97589.00;;;3.93;61.90
6668;BME280;3370;47.712;9.082;2023-04-03T04:31:26;97580.63;;;3.87;61.79
6668;BME280;3370;47.712;9.082;2023-04-03T04:33:52;97580.59;;;3.88;62.17
6668;BME280;3370;47.712;9.082;2023-04-03T04:36:18;97580.59;;;3.88;62.12
6668;BME280;3370;47.712;9.082;2023-04-03T04:38:44;97579.75;;;3.86;62.44
6668;BME280;3370;47.712;9.082;2023-04-03T04:41:10;97584.03;;;3.82;62.21
6668;BME280;3370;47.712;9.082;2023-04-03T04:43:36;97591.72;;;3.79;62.74
6668;BME280;3370;47.712;9.082;2023-04-03T04:46:05;97584.84;;;3.86;62.77
6668;BME280;3370;47.712;9.082;2023-04-03T04:48:31;97584.91;;;3.83;62.42
6668;BME280;3370;47.712;9.082;2023-04-03T04:50:57;97589.97;;;3.84;62.94
6668;BME280;3370;47.712;9.082;2023-04-03T04:53:22;97589.09;;;3.84;62.47
6668;BME280;3370;47.712;9.082;2023-04-03T04:55:48;97588.34;;;3.76;62.40
6668;BME280;3370;47.712;9.082;2023-04-03T04:58:14;97588.28;;;3.82;61.84
6668;BME280;3370;47.712;9.082;2023-04-03T05:00:40;97586.66;;;3.76;61.43
6668;BME280;3370;47.712;9.082;2023-04-03T05:03:06;97587.47;;;3.77;62.20
6668;BME280;3370;47.712;9.082;2023-04-03T05:05:32;97596.81;;;3.75;62.55
6668;BME280;3370;47.712;9.082;2023-04-03T05:07:57;97596.88;;;3.72;62.23
6668;BME280;3370;47.712;9.082;2023-04-03T05:10:23;97603.63;;;3.76;61.28
6668;BME280;3370;47.712;9.082;2023-04-03T05:12:49;97604.53;;;3.65;61.01
6668;BME280;3370;47.712;9.082;2023-04-03T05:15:15;97601.97;;;3.69;60.60
6668;BME280;3370;47.712;9.082;2023-04-03T05:17:40;97602.81;;;3.71;60.89
6668;BME280;3370;47.712;9.082;2023-04-03T05:20:07;97605.38;;;3.68;61.27
6668;BME280;3370;47.712;9.082;2023-04-03T05:22:32;97608.03;;;3.54;61.47
6668;BME280;3370;47.712;9.082;2023-04-03T05:24:58;97616.53;;;3.50;61.43
6668;BME280;3370;47.712;9.082;2023-04-03T05:27:24;97608.88;;;3.54;60.85
6668;BME280;3370;47.712;9.082;2023-04-03T05:29:52;97611.50;;;3.48;60.98
6668;BME280;3370;47.712;9.082;2023-04-03T05:32:18;97611.50;;;3.45;61.71
6668;BME280;3370;47.712;9.082;2023-04-03T05:34:43;97613.22;;;3.44;61.78
6668;BME280;3370;47.712;9.082;2023-04-03T05:37:10;97616.59;;;3.40;62.07
6668;BME280;3370;47.712;9.082;2023-04-03T05:39:36;97613.25;;;3.37;61.35
6668;BME280;3370;47.712;9.082;2023-04-03T05:42:03;97614.94;;;3.35;62.27
6668;BME280;3370;47.712;9.082;2023-04-03T05:44:29;97609.88;;;3.35;61.87
6668;BME280;3370;47.712;9.082;2023-04-03T05:46:55;97603.94;;;3.36;61.55
6668;BME280;3370;47.712;9.082;2023-04-03T05:49:21;97613.25;;;3.37;62.12
6668;BME280;3370;47.712;9.082;2023-04-03T05:51:47;97624.28;;;3.36;62.53
6668;BME280;3370;47.712;9.082;2023-04-03T05:54:21;97608.09;;;3.46;63.29
6668;BME280;3370;47.712;9.082;2023-04-03T05:56:49;97612.31;;;3.47;62.58
6668;BME280;3370;47.712;9.082;2023-04-03T05:59:16;97624.22;;;3.45;61.76
6668;BME280;3370;47.712;9.082;2023-04-03T06:01:43;97619.13;;;3.45;61.66
6668;BME280;3370;47.712;9.082;2023-04-03T06:04:08;97615.69;;;3.52;62.51
6668;BME280;3370;47.712;9.082;2023-04-03T06:06:51;97619.06;;;3.51;63.53
6668;BME280;3370;47.712;9.082;2023-04-03T06:09:20;97610.53;;;3.58;62.60
6668;BME280;3370;47.712;9.082;2023-04-03T06:11:46;97618.13;;;3.63;62.35
6668;BME280;3370;47.712;9.082;2023-04-03T06:14:12;97617.25;;;3.67;62.32
6668;BME280;3370;47.712;9.082;2023-04-03T06:16:38;97623.16;;;3.69;62.86
6668;BME280;3370;47.712;9.082;2023-04-03T06:19:05;97615.59;;;3.64;63.20
6668;BME280;3370;47.712;9.082;2023-04-03T06:21:32;97611.19;;;3.80;61.65
6668;BME280;3370;47.712;9.082;2023-04-03T06:23:58;97619.69;;;3.81;61.11
6668;BME280;3370;47.712;9.082;2023-04-03T06:26:24;97618.00;;;3.77;62.31
6668;BME280;3370;47.712;9.082;2023-04-03T06:28:50;97618.00;;;3.77;62.67
6668;BME280;3370;47.712;9.082;2023-04-03T06:31:15;97617.91;;;3.89;62.80
6668;BME280;3370;47.712;9.082;2023-04-03T06:33:42;97613.59;;;3.97;62.39
6668;BME280;3370;47.712;9.082;2023-04-03T06:36:10;97611.00;;;4.00;62.34
6668;BME280;3370;47.712;9.082;2023-04-03T06:38:37;97615.25;;;4.01;61.55
6668;BME280;3370;47.712;9.082;2023-04-03T06:41:03;97616.97;;;3.99;61.47
6668;BME280;3370;47.712;9.082;2023-04-03T06:43:29;97606.72;;;4.06;61.74
6668;BME280;3370;47.712;9.082;2023-04-03T06:45:56;97610.88;;;4.11;61.46
6668;BME280;3370;47.712;9.082;2023-04-03T06:48:22;97612.53;;;4.17;61.62
6668;BME280;3370;47.712;9.082;2023-04-03T06:50:48;97609.97;;;4.17;61.92
6668;BME280;3370;47.712;9.082;2023-04-03T06:53:14;97616.78;;;4.15;61.69
6668;BME280;3370;47.712;9.082;2023-04-03T06:55:41;97609.97;;;4.20;62.08
6668;BME280;3370;47.712;9.082;2023-04-03T06:58:07;97611.66;;;4.21;61.66
6668;BME280;3370;47.712;9.082;2023-04-03T07:00:33;97612.47;;;4.25;61.23
6668;BME280;3370;47.712;9.082;2023-04-03T07:02:59;97605.69;;;4.23;60.99
6668;BME280;3370;47.712;9.082;2023-04-03T07:05:25;97615.84;;;4.27;61.38
6668;BME280;3370;47.712;9.082;2023-04-03T07:07:52;97614.16;;;4.24;61.29
6668;BME280;3370;47.712;9.082;2023-04-03T07:10:18;97610.75;;;4.25;61.57
6668;BME280;3370;47.712;9.082;2023-04-03T07:12:44;97614.91;;;4.35;61.48
6668;BME280;3370;47.712;9.082;2023-04-03T07:15:10;97622.47;;;4.38;60.60
6668;BME280;3370;47.712;9.082;2023-04-03T07:17:38;97620.00;;;4.35;61.07
6668;BME280;3370;47.712;9.082;2023-04-03T07:20:05;97623.25;;;4.47;60.74
6668;BME280;3370;47.712;9.082;2023-04-03T07:22:31;97625.00;;;4.41;60.67
6668;BME280;3370;47.712;9.082;2023-04-03T07:24:57;97626.69;;;4.43;60.86
6668;BME280;3370;47.712;9.082;2023-04-03T07:27:24;97624.09;;;4.46;61.80
6668;BME280;3370;47.712;9.082;2023-04-03T07:29:51;97621.44;;;4.55;61.97
6668;BME280;3370;47.712;9.082;2023-04-03T07:32:17;97622.28;;;4.57;61.72
6668;BME280;3370;47.712;9.082;2023-04-03T07:34:43;97620.50;;;4.62;61.83
6668;BME280;3370;47.712;9.082;2023-04-03T07:37:10;97623.84;;;4.69;61.83
6668;BME280;3370;47.712;9.082;2023-04-03T07:39:35;97624.63;;;4.72;61.29
6668;BME280;3370;47.712;9.082;2023-04-03T07:42:01;97627.09;;;4.80;61.37
6668;BME280;3370;47.712;9.082;2023-04-03T07:44:28;97625.19;;;4.94;61.75
6668;BME280;3370;47.712;9.082;2023-04-03T07:46:54;97628.66;;;4.90;61.68
6668;BME280;3370;47.712;9.082;2023-04-03T07:49:22;97631.88;;;5.05;61.92
6668;BME280;3370;47.712;9.082;2023-04-03T07:51:51;97634.31;;;5.12;61.34
6668;BME280;3370;47.712;9.082;2023-04-03T07:54:18;97630.81;;;5.18;61.86
6668;BME280;3370;47.712;9.082;2023-04-03T07:56:44;97632.41;;;5.27;60.78
6668;BME280;3370;47.712;9.082;2023-04-03T07:59:10;97630.66;;;5.30;60.11
6668;BME280;3370;47.712;9.082;2023-04-03T08:01:37;97629.81;;;5.30;60.70
6668;BME280;3370;47.712;9.082;2023-04-03T08:04:02;97641.69;;;5.29;60.28
6668;BME280;3370;47.712;9.082;2023-04-03T08:06:30;97637.41;;;5.33;60.21
6668;BME280;3370;47.712;9.082;2023-04-03T08:08:57;97635.72;;;5.32;60.80
6668;BME280;3370;47.712;9.082;2023-04-03T08:11:24;97633.06;;;5.40;61.58
6668;BME280;3370;47.712;9.082;2023-04-03T08:13:52;97638.25;;;5.33;61.32
6668;BME280;3370;47.712;9.082;2023-04-03T08:16:22;97637.38;;;5.36;61.92
6668;BME280;3370;47.712;9.082;2023-04-03T08:18:48;97642.28;;;5.48;61.54
6668;BME280;3370;47.712;9.082;2023-04-03T08:21:14;97638.75;;;5.59;60.42
6668;BME280;3370;47.712;9.082;2023-04-03T08:23:41;97639.56;;;5.59;60.33
6668;BME280;3370;47.712;9.082;2023-04-03T08:26:13;97637.00;;;5.61;60.30
6668;BME280;3370;47.712;9.082;2023-04-03T08:28:40;97633.56;;;5.62;60.51
6668;BME280;3370;47.712;9.082;2023-04-03T08:31:11;97641.97;;;5.68;61.08
6668;BME280;3370;47.712;9.082;2023-04-03T08:33:38;97641.84;;;5.76;60.48
6668;BME280;3370;47.712;9.082;2023-04-03T08:36:06;97643.44;;;5.83;60.45
6668;BME280;3370;47.712;9.082;2023-04-03T08:38:33;97644.09;;;5.96;60.97
6668;BME280;3370;47.712;9.082;2023-04-03T08:41:36;97638.16;;;5.95;60.28
6668;BME280;3370;47.712;9.082;2023-04-03T08:49:56;97648.53;;;5.83;61.38
6668;BME280;3370;47.712;9.082;2023-04-03T08:58:26;97648.38;;;5.95;61.16
6668;BME280;3370;47.712;9.082;2023-04-03T09:03:23;97647.28;;;6.09;60.91
6668;BME280;3370;47.712;9.082;2023-04-03T09:06:01;97652.28;;;6.15;61.02
6668;BME280;3370;47.712;9.082;2023-04-03T09:08:51;97642.00;;;6.18;60.63
6668;BME280;3370;47.712;9.082;2023-04-03T09:17:09;97642.84;;;6.20;61.19
6668;BME280;3370;47.712;9.082;2023-04-03T09:22:28;97646.84;;;6.33;60.76
6668;BME280;3370;47.712;9.082;2023-04-03T09:25:27;97643.25;;;6.44;61.33
6668;BME280;3370;47.712;9.082;2023-04-03T09:27:54;97649.84;;;6.54;61.07
6668;BME280;3370;47.712;9.082;2023-04-03T09:30:24;97643.75;;;6.61;60.40
6668;BME280;3370;47.712;9.082;2023-04-03T09:32:56;97643.66;;;6.67;61.00
6668;BME280;3370;47.712;9.082;2023-04-03T09:35:28;97643.69;;;6.64;59.44
6668;BME280;3370;47.712;9.082;2023-04-03T09:38:13;97641.13;;;6.66;60.09
6668;BME280;3370;47.712;9.082;2023-04-03T09:40:42;97636.59;;;6.79;60.29
6668;BME280;3370;47.712;9.082;2023-04-03T09:45:45;97642.94;;;7.01;58.60
6668;BME280;3370;47.712;9.082;2023-04-03T09:53:43;97638.78;;;6.97;58.66
6668;BME280;3370;47.712;9.082;2023-04-03T09:56:20;97638.53;;;7.08;58.26
6668;BME280;3370;47.712;9.082;2023-04-03T09:58:50;97639.53;;;7.02;58.12
6668;BME280;3370;47.712;9.082;2023-04-03T10:01:32;97639.47;;;7.05;57.98
6668;BME280;3370;47.712;9.082;2023-04-03T10:04:19;97641.66;;;7.22;57.98
6668;BME280;3370;47.712;9.082;2023-04-03T10:06:52;97638.06;;;7.29;57.66
6668;BME280;3370;47.712;9.082;2023-04-03T10:09:31;97633.72;;;7.33;57.24
6668;BME280;3370;47.712;9.082;2023-04-03T10:12:05;97642.44;;;7.24;57.04
6668;BME280;3370;47.712;9.082;2023-04-03T10:14:35;97634.56;;;7.34;57.19
6668;BME280;3370;47.712;9.082;2023-04-03T10:20:37;97638.91;;;7.30;57.82
6668;BME280;3370;47.712;9.082;2023-04-03T10:23:33;97637.03;;;7.38;57.09
6668;BME280;3370;47.712;9.082;2023-04-03T10:26:29;97638.56;;;7.45;57.39
6668;BME280;3370;47.712;9.082;2023-04-03T10:32:26;97631.50;;;7.55;56.85
6668;BME280;3370;47.712;9.082;2023-04-03T10:44:37;97622.34;;;7.45;57.01
6668;BME280;3370;47.712;9.082;2023-04-03T10:47:34;97630.91;;;7.45;57.00
6668;BME280;3370;47.712;9.082;2023-04-03T10:58:45;97616.59;;;7.73;56.13
6668;BME280;3370;47.712;9.082;2023-04-03T11:01:20;97613.88;;;7.79;56.76
6668;BME280;3370;47.712;9.082;2023-04-03T11:03:52;97611.59;;;8.01;54.87
6668;BME280;3370;47.712;9.082;2023-04-03T11:06:20;97608.00;;;8.08;55.26
6668;BME280;3370;47.712;9.082;2023-04-03T11:08:57;97599.38;;;8.12;54.83
6668;BME280;3370;47.712;9.082;2023-04-03T11:11:33;97601.56;;;8.26;54.57
6668;BME280;3370;47.712;9.082;2023-04-03T11:14:14;97607.44;;;8.30;54.61
6668;BME280;3370;47.712;9.082;2023-04-03T11:16:53;97604.78;;;8.34;53.56
6668;BME280;3370;47.712;9.082;2023-04-03T11:19:31;97600.88;;;8.19;52.42
6668;BME280;3370;47.712;9.082;2023-04-03T11:22:09;97598.56;;;8.10;53.41
6668;BME280;3370;47.712;9.082;2023-04-03T11:24:41;97601.13;;;8.10;53.25
6668;BME280;3370;47.712;9.082;2023-04-03T11:27:20;97597.53;;;8.17;52.91
6668;BME280;3370;47.712;9.082;2023-04-03T11:29:50;97594.84;;;8.22;52.59
6668;BME280;3370;47.712;9.082;2023-04-03T11:32:32;97595.84;;;8.16;52.39
6668;BME280;3370;47.712;9.082;2023-04-03T11:35:03;97601.97;;;8.11;52.33
6668;BME280;3370;47.712;9.082;2023-04-03T11:37:50;97589.31;;;8.04;54.31
6668;BME280;3370;47.712;9.082;2023-04-03T11:40:30;97590.81;;;8.13;53.17
6668;BME280;3370;47.712;9.082;2023-04-03T11:43:27;97592.19;;;7.92;53.92
6668;BME280;3370;47.712;9.082;2023-04-03T11:46:02;97593.09;;;7.91;53.70
6668;BME280;3370;47.712;9.082;2023-04-03T11:50:58;97589.94;;;7.81;53.93
6668;BME280;3370;47.712;9.082;2023-04-03T11:53:35;97605.44;;;7.75;53.65
6668;BME280;3370;47.712;9.082;2023-04-03T11:56:28;97583.50;;;7.65;53.55
6668;BME280;3370;47.712;9.082;2023-04-03T12:01:49;97586.78;;;7.70;55.11
6668;BME280;3370;47.712;9.082;2023-04-03T12:04:18;97581.59;;;7.73;54.73
6668;BME280;3370;47.712;9.082;2023-04-03T12:12:36;97568.81;;;7.72;52.91
6668;BME280;3370;47.712;9.082;2023-04-03T12:15:18;97571.16;;;7.81;53.45
6668;BME280;3370;47.712;9.082;2023-04-03T12:17:44;97567.03;;;7.75;52.55
6668;BME280;3370;47.712;9.082;2023-04-03T12:23:30;97569.16;;;7.92;53.24
6668;BME280;3370;47.712;9.082;2023-04-03T12:26:21;97564.69;;;8.00;53.21
6668;BME280;3370;47.712;9.082;2023-04-03T12:28:51;97560.56;;;7.95;52.87
6668;BME280;3370;47.712;9.082;2023-04-03T12:31:19;97564.00;;;7.94;53.17
6668;BME280;3370;47.712;9.082;2023-04-03T12:37:09;97561.06;;;8.07;51.58
6668;BME280;3370;47.712;9.082;2023-04-03T12:48:15;97557.34;;;7.86;51.16
6668;BME280;3370;47.712;9.082;2023-04-03T12:50:45;97560.78;;;7.87;50.98
6668;BME280;3370;47.712;9.082;2023-04-03T12:53:22;97555.44;;;7.95;50.51
6668;BME280;3370;47.712;9.082;2023-04-03T12:55:57;97551.97;;;7.96;50.21
6668;BME280;3370;47.712;9.082;2023-04-03T12:58:43;97549.38;;;7.97;51.15
6668;BME280;3370;47.712;9.082;2023-04-03T13:01:18;97554.19;;;8.10;51.40
6668;BME280;3370;47.712;9.082;2023-04-03T13:03:54;97549.88;;;8.10;49.82
6668;BME280;3370;47.712;9.082;2023-04-03T13:06:43;97548.16;;;8.12;49.93
6668;BME280;3370;47.712;9.082;2023-04-03T13:09:31;97556.78;;;8.08;49.84
6668;BME280;3370;47.712;9.082;2023-04-03T13:12:02;97556.53;;;8.17;50.26
6668;BME280;3370;47.712;9.082;2023-04-03T13:14:29;97556.47;;;8.20;50.78
6668;BME280;3370;47.712;9.082;2023-04-03T13:17:14;97546.03;;;8.26;50.31
6668;BME280;3370;47.712;9.082;2023-04-03T13:19:42;97551.16;;;8.26;49.78
6668;BME280;3370;47.712;9.082;2023-04-03T13:24:50;97547.38;;;8.40;52.06
6668;BME280;3370;47.712;9.082;2023-04-03T13:27:17;97542.63;;;8.57;49.16
6668;BME280;3370;47.712;9.082;2023-04-03T13:29:43;97548.66;;;8.56;48.25
6668;BME280;3370;47.712;9.082;2023-04-03T13:32:23;97550.69;;;8.45;47.14
6668;BME280;3370;47.712;9.082;2023-04-03T13:34:50;97538.16;;;8.34;47.02
6668;BME280;3370;47.712;9.082;2023-04-03T13:37:32;97546.56;;;8.39;47.65
6668;BME280;3370;47.712;9.082;2023-04-03T13:39:59;97540.81;;;8.30;48.93
6668;BME280;3370;47.712;9.082;2023-04-03T13:42:31;97534.53;;;8.43;49.54
6668;BME280;3370;47.712;9.082;2023-04-03T13:45:30;97530.63;;;8.59;50.14
6668;BME280;3370;47.712;9.082;2023-04-03T13:48:17;97531.16;;;8.71;49.92
6668;BME280;3370;47.712;9.082;2023-04-03T13:50:55;97529.44;;;8.70;50.20
6668;BME280;3370;47.712;9.082;2023-04-03T13:53:22;97532.13;;;8.67;49.65
6668;BME280;3370;47.712;9.082;2023-04-03T13:58:31;97535.78;;;8.86;49.97
6668;BME280;3370;47.712;9.082;2023-04-03T14:01:19;97534.72;;;8.93;49.52
6668;BME280;3370;47.712;9.082;2023-04-03T14:03:58;97539.84;;;8.93;48.68
6668;BME280;3370;47.712;9.082;2023-04-03T14:06:25;97532.06;;;8.96;49.28
6668;BME280;3370;47.712;9.082;2023-04-03T14:08:51;97535.44;;;8.98;48.71
6668;BME280;3370;47.712;9.082;2023-04-03T14:11:24;97537.56;;;8.84;49.01
6668;BME280;3370;47.712;9.082;2023-04-03T14:13:53;97538.34;;;8.86;48.32
6668;BME280;3370;47.712;9.082;2023-04-03T14:16:23;97530.25;;;8.72;48.36
6668;BME280;3370;47.712;9.082;2023-04-03T14:18:50;97526.19;;;8.64;48.57
6668;BME280;3370;47.712;9.082;2023-04-03T14:21:20;97527.75;;;8.70;48.41
6668;BME280;3370;47.712;9.082;2023-04-03T14:23:47;97519.19;;;8.70;48.09
6668;BME280;3370;47.712;9.082;2023-04-03T14:26:20;97529.91;;;8.54;47.76
6668;BME280;3370;47.712;9.082;2023-04-03T14:28:51;97521.16;;;8.61;48.24
6668;BME280;3370;47.712;9.082;2023-04-03T14:31:19;97525.53;;;8.58;47.96
6668;BME280;3370;47.712;9.082;2023-04-03T14:33:45;97520.69;;;8.49;47.81
6668;BME280;3370;47.712;9.082;2023-04-03T14:36:23;97516.78;;;8.34;48.59
6668;BME280;3370;47.712;9.082;2023-04-03T14:38:51;97512.53;;;8.34;48.05
6668;BME280;3370;47.712;9.082;2023-04-03T14:41:21;97514.03;;;8.41;47.35
6668;BME280;3370;47.712;9.082;2023-04-03T14:43:47;97514.94;;;8.39;46.81
6668;BME280;3370;47.712;9.082;2023-04-03T14:46:36;97511.66;;;8.34;47.78
6668;BME280;3370;47.712;9.082;2023-04-03T14:49:06;97511.84;;;8.28;48.09
6668;BME280;3370;47.712;9.082;2023-04-03T14:51:38;97507.59;;;8.26;48.00
6668;BME280;3370;47.712;9.082;2023-04-03T14:54:09;97510.38;;;8.19;47.47
6668;BME280;3370;47.712;9.082;2023-04-03T14:56:37;97517.22;;;8.18;47.46
6668;BME280;3370;47.712;9.082;2023-04-03T14:59:04;97501.69;;;8.24;47.12
6668;BME280;3370;47.712;9.082;2023-04-03T15:01:35;97519.91;;;8.14;48.21
6668;BME280;3370;47.712;9.082;2023-04-03T15:04:01;97509.81;;;8.09;47.66
6668;BME280;3370;47.712;9.082;2023-04-03T15:06:26;97506.59;;;8.01;47.76
6668;BME280;3370;47.712;9.082;2023-04-03T15:08:52;97503.97;;;8.04;47.11
6668;BME280;3370;47.712;9.082;2023-04-03T15:11:18;97507.31;;;8.06;47.29
6668;BME280;3370;47.712;9.082;2023-04-03T15:13:43;97507.59;;;7.97;47.75
6668;BME280;3370;47.712;9.082;2023-04-03T15:16:18;97511.25;;;7.86;48.86
6668;BME280;3370;47.712;9.082;2023-04-03T15:18:45;97509.66;;;7.82;49.49
6668;BME280;3370;47.712;9.082;2023-04-03T15:21:12;97511.38;;;7.83;49.76